< < Back
Terminal Aerodrome Forecast


Current Version              Previous Versions:   1  2  3  4  5  6  7  8  9  

Terminal Aerodrome Forecast

931
FTUS44 KMRX 171720
TAFTYS
TAF
KTYS 171720Z 1718/1818 26007KT P6SM BKN025
     FM172000 26007KT P6SM SCT025 BKN035
      TEMPO 1720/1722 BKN025
     FM180000 00000KT P6SM SCT035 BKN200
     FM181400 02003KT P6SM OVC100=



Latest METAR

043
SAUS80 KWBC 180800
MTRTYS
METAR KTYS 180753Z 00000KT 10SM FEW150 SCT250 01/M02 A3022 RMK AO2
SLP236 T00061022


USA.gov is the U.S. government's official web portal to all federal, state and local government web resources and services.